Time,TemperatureF,DewpointF,PressureIn,WindDirection,WindDirectionDegrees,WindSpeedMPH,WindSpeedGustMPH,Humidity,HourlyPrecipIn,Conditions,Clouds,dailyrainin,SolarRadiationWatts/m^2,SoftwareType,DateUTC
2013-03-11 00:02:00,29.0,22.0,-100.00,WNW,294,2.0,8.0,75,0.00,,,0.00,0.000000,,2013-03-11 07:02:00,
2013-03-11 00:12:00,29.0,22.0,-100.00,WNW,294,2.0,8.0,75,0.00,,,0.00,0.000000,,2013-03-11 07:12:00,
2013-03-11 00:21:00,29.0,22.0,-100.00,WNW,294,2.0,8.0,75,0.00,,,0.00,0.000000,,2013-03-11 07:21:00,
2013-03-11 00:52:00,30.0,26.0,-100.00,South,186,4.0,7.0,85,0.00,,,0.00,0.000000,,2013-03-11 07:52:00,
2013-03-11 01:02:00,30.0,26.0,-100.00,South,186,4.0,7.0,85,0.00,,,0.00,0.000000,,2013-03-11 08:02:00,
2013-03-11 01:52:00,28.0,25.0,-100.00,South,184,6.0,10.0,87,0.00,,,0.00,0.000000,,2013-03-11 08:52:00,
2013-03-11 02:02:00,28.0,25.0,-100.00,South,184,6.0,10.0,87,0.00,,,0.00,0.000000,,2013-03-11 09:02:00,
2013-03-11 02:12:00,28.0,25.0,-100.00,South,184,6.0,10.0,87,0.00,,,0.00,0.000000,,2013-03-11 09:12:00,
2013-03-11 02:22:00,28.0,25.0,-100.00,South,184,6.0,10.0,87,0.00,,,0.00,0.000000,,2013-03-11 09:22:00,
2013-03-11 02:52:00,27.0,24.0,-100.00,South,177,7.0,9.0,87,0.00,,,0.00,0.000000,,2013-03-11 09:52:00,
2013-03-11 03:02:00,27.0,24.0,-100.00,South,177,7.0,9.0,87,0.00,,,0.00,0.000000,,2013-03-11 10:02:00,
2013-03-11 03:12:00,27.0,24.0,-100.00,South,177,7.0,9.0,87,0.00,,,0.00,0.000000,,2013-03-11 10:12:00,
2013-03-11 03:21:00,27.0,24.0,-100.00,South,177,7.0,9.0,87,0.00,,,0.00,0.000000,,2013-03-11 10:21:00,
2013-03-11 03:52:00,26.0,23.0,-100.00,South,174,8.0,10.0,89,0.00,,,0.00,0.000000,,2013-03-11 10:52:00,
2013-03-11 04:02:00,26.0,23.0,-100.00,South,174,8.0,10.0,89,0.00,,,0.00,0.000000,,2013-03-11 11:02:00,
2013-03-11 04:12:00,26.0,23.0,-100.00,South,174,8.0,10.0,89,0.00,,,0.00,0.000000,,2013-03-11 11:12:00,
2013-03-11 04:22:00,26.0,23.0,-100.00,South,174,8.0,10.0,89,0.00,,,0.00,0.000000,,2013-03-11 11:22:00,
2013-03-11 04:53:00,25.0,22.0,-100.00,South,188,4.0,12.0,90,0.00,,,-99.99,0.000000,,2013-03-11 11:53:00,
2013-03-11 05:02:00,25.0,22.0,-100.00,South,188,4.0,12.0,90,0.00,,,-99.99,0.000000,,2013-03-11 12:02:00,
2013-03-11 05:12:00,25.0,22.0,-100.00,South,188,4.0,12.0,90,0.00,,,-99.99,0.000000,,2013-03-11 12:12:00,
2013-03-11 05:21:00,25.0,22.0,-100.00,South,188,4.0,12.0,90,0.00,,,-99.99,0.000000,,2013-03-11 12:21:00,
2013-03-11 05:53:00,24.0,22.0,-100.00,SSW,193,7.0,10.0,91,0.00,,,-99.99,0.000000,,2013-03-11 12:53:00,
2013-03-11 06:02:00,24.0,22.0,-100.00,SSW,193,7.0,10.0,91,0.00,,,-99.99,0.000000,,2013-03-11 13:02:00,
2013-03-11 06:12:00,24.0,22.0,-100.00,SSW,193,7.0,10.0,91,0.00,,,-99.99,0.000000,,2013-03-11 13:12:00,
2013-03-11 06:21:00,24.0,22.0,-100.00,SSW,193,7.0,10.0,91,0.00,,,-99.99,0.000000,,2013-03-11 13:21:00,
2013-03-11 06:52:00,24.0,22.0,-100.00,South,187,7.0,9.0,90,0.00,,,0.00,0.000000,,2013-03-11 13:52:00,
2013-03-11 07:02:00,24.0,22.0,-100.00,South,187,7.0,9.0,90,0.00,,,0.00,0.000000,,2013-03-11 14:02:00,
2013-03-11 07:12:00,24.0,22.0,-100.00,South,187,7.0,9.0,90,0.00,,,0.00,0.000000,,2013-03-11 14:12:00,
2013-03-11 07:22:00,24.0,22.0,-100.00,South,187,7.0,9.0,90,0.00,,,0.00,0.000000,,2013-03-11 14:22:00,
2013-03-11 07:53:00,23.0,20.0,-100.00,South,181,8.0,11.0,88,0.00,,,0.00,0.000000,,2013-03-11 14:53:00,
2013-03-11 08:02:00,23.0,20.0,-100.00,South,181,8.0,11.0,88,0.00,,,0.00,0.000000,,2013-03-11 15:02:00,
2013-03-11 08:12:00,23.0,20.0,-100.00,South,181,8.0,11.0,88,0.00,,,0.00,0.000000,,2013-03-11 15:12:00,
2013-03-11 08:22:00,23.0,20.0,-100.00,South,181,8.0,11.0,88,0.00,,,0.00,0.000000,,2013-03-11 15:22:00,
2013-03-11 08:53:00,23.0,16.0,-100.00,South,189,7.0,13.0,73,0.00,,,-99.99,0.000000,,2013-03-11 15:53:00,
2013-03-11 09:02:00,23.0,16.0,-100.00,South,189,7.0,13.0,73,0.00,,,-99.99,0.000000,,2013-03-11 16:02:00,
2013-03-11 09:12:00,23.0,16.0,-100.00,South,189,7.0,13.0,73,0.00,,,-99.99,0.000000,,2013-03-11 16:12:00,
2013-03-11 09:22:00,23.0,16.0,-100.00,South,189,7.0,13.0,73,0.00,,,-99.99,0.000000,,2013-03-11 16:22:00,
2013-03-11 09:52:00,32.0,16.0,-100.00,SSE,167,5.0,11.0,51,-99.99,,,0.00,9.000000,,2013-03-11 16:52:00,
2013-03-11 10:02:00,32.0,16.0,-100.00,SSE,167,5.0,11.0,51,-99.99,,,0.00,9.000000,,2013-03-11 17:02:00,
2013-03-11 10:13:00,32.0,16.0,-100.00,SSE,167,5.0,11.0,51,-99.99,,,0.00,9.000000,,2013-03-11 17:13:00,
2013-03-11 10:24:00,32.0,16.0,-100.00,SSE,167,5.0,11.0,51,-99.99,,,0.00,9.000000,,2013-03-11 17:24:00,
2013-03-11 10:53:00,40.0,10.0,-100.00,NNW,345,1.0,10.0,29,-99.99,,,0.00,225.000000,,2013-03-11 17:53:00,
2013-03-11 11:12:00,40.0,10.0,-100.00,NNW,345,1.0,10.0,29,-99.99,,,0.00,225.000000,,2013-03-11 18:12:00,
2013-03-11 11:22:00,40.0,10.0,-100.00,NNW,345,1.0,10.0,29,-99.99,,,0.00,225.000000,,2013-03-11 18:22:00,
2013-03-11 11:53:00,46.0,10.0,-100.00,North,8,3.0,6.0,23,0.00,,,0.00,435.000000,,2013-03-11 18:53:00,
2013-03-11 12:02:00,46.0,10.0,-100.00,North,8,3.0,6.0,23,0.00,,,0.00,435.000000,,2013-03-11 19:02:00,
2013-03-11 12:12:00,46.0,10.0,-100.00,North,8,3.0,6.0,23,0.00,,,0.00,435.000000,,2013-03-11 19:12:00,
2013-03-11 12:22:00,46.0,10.0,-100.00,North,8,3.0,6.0,23,0.00,,,0.00,435.000000,,2013-03-11 19:22:00,
2013-03-11 12:53:00,51.0,16.0,-100.00,ESE,109,4.0,8.0,25,0.00,,,0.00,637.000000,,2013-03-11 19:53:00,
2013-03-11 13:02:00,51.0,16.0,-100.00,ESE,109,4.0,8.0,25,0.00,,,0.00,637.000000,,2013-03-11 20:02:00,
2013-03-11 13:12:00,51.0,16.0,-100.00,ESE,109,4.0,8.0,25,0.00,,,0.00,637.000000,,2013-03-11 20:12:00,
2013-03-11 13:22:00,51.0,16.0,-100.00,ESE,109,4.0,8.0,25,0.00,,,0.00,637.000000,,2013-03-11 20:22:00,
2013-03-11 13:53:00,52.0,18.0,-100.00,NNW,337,3.0,13.0,26,0.00,,,0.00,833.000000,,2013-03-11 20:53:00,
2013-03-11 14:02:00,52.0,18.0,-100.00,NNW,337,3.0,13.0,26,0.00,,,0.00,833.000000,,2013-03-11 21:02:00,
2013-03-11 14:12:00,52.0,18.0,-100.00,NNW,337,3.0,13.0,26,0.00,,,0.00,833.000000,,2013-03-11 21:12:00,
2013-03-11 14:22:00,52.0,18.0,-100.00,NNW,337,3.0,13.0,26,0.00,,,0.00,833.000000,,2013-03-11 21:22:00,
2013-03-11 14:53:00,53.0,23.0,-100.00,NNW,332,8.0,14.0,31,0.00,,,0.00,970.000000,,2013-03-11 21:53:00,
2013-03-11 15:02:00,53.0,23.0,-100.00,NNW,332,8.0,14.0,31,0.00,,,0.00,970.000000,,2013-03-11 22:02:00,
2013-03-11 15:12:00,53.0,23.0,-100.00,NNW,332,8.0,14.0,31,0.00,,,0.00,970.000000,,2013-03-11 22:12:00,
2013-03-11 15:22:00,53.0,23.0,-100.00,NNW,332,8.0,14.0,31,0.00,,,0.00,970.000000,,2013-03-11 22:22:00,
2013-03-11 15:53:00,53.0,22.0,-100.00,NNE,18,8.0,16.0,30,0.00,,,0.00,948.000000,,2013-03-11 22:53:00,
2013-03-11 16:02:00,53.0,22.0,-100.00,NNE,18,8.0,16.0,30,0.00,,,0.00,948.000000,,2013-03-11 23:02:00,
2013-03-11 16:12:00,53.0,22.0,-100.00,NNE,18,8.0,16.0,30,0.00,,,0.00,948.000000,,2013-03-11 23:12:00,
2013-03-11 16:21:00,53.0,22.0,-100.00,NNE,18,8.0,16.0,30,0.00,,,0.00,948.000000,,2013-03-11 23:21:00,
2013-03-11 16:53:00,55.0,26.0,-100.00,NW,312,10.0,19.0,32,0.00,,,0.00,829.000000,,2013-03-11 23:53:00,
2013-03-11 17:02:00,55.0,26.0,-100.00,NW,312,10.0,19.0,32,0.00,,,0.00,829.000000,,2013-03-12 00:02:00,
2013-03-11 17:12:00,55.0,26.0,-100.00,NW,312,10.0,19.0,32,0.00,,,0.00,829.000000,,2013-03-12 00:12:00,
2013-03-11 17:22:00,55.0,26.0,-100.00,NW,312,10.0,19.0,32,0.00,,,0.00,829.000000,,2013-03-12 00:22:00,
2013-03-11 17:53:00,54.0,25.0,-100.00,WNW,295,8.0,16.0,32,0.00,,,0.00,634.000000,,2013-03-12 00:53:00,
2013-03-11 18:02:00,54.0,25.0,-100.00,WNW,295,8.0,16.0,32,0.00,,,0.00,634.000000,,2013-03-12 01:02:00,
2013-03-11 18:12:00,54.0,25.0,-100.00,WNW,295,8.0,16.0,32,0.00,,,0.00,634.000000,,2013-03-12 01:12:00,
2013-03-11 18:22:00,54.0,25.0,-100.00,WNW,295,8.0,16.0,32,0.00,,,0.00,634.000000,,2013-03-12 01:22:00,
2013-03-11 18:52:00,52.0,28.0,-100.00,NW,304,9.0,17.0,39,0.00,,,0.00,422.000000,,2013-03-12 01:52:00,
2013-03-11 19:02:00,52.0,28.0,-100.00,NW,304,9.0,17.0,39,0.00,,,0.00,422.000000,,2013-03-12 02:02:00,
2013-03-11 19:12:00,52.0,28.0,-100.00,NW,304,9.0,17.0,39,0.00,,,0.00,422.000000,,2013-03-12 02:12:00,
2013-03-11 19:22:00,52.0,28.0,-100.00,NW,304,9.0,17.0,39,0.00,,,0.00,422.000000,,2013-03-12 02:22:00,
2013-03-11 19:52:00,47.0,26.0,-100.00,SW,229,1.0,15.0,44,0.00,,,0.00,152.000000,,2013-03-12 02:52:00,
2013-03-11 20:02:00,47.0,26.0,-100.00,SW,229,1.0,15.0,44,0.00,,,0.00,152.000000,,2013-03-12 03:02:00,
2013-03-11 20:12:00,47.0,26.0,-100.00,SW,229,1.0,15.0,44,0.00,,,0.00,152.000000,,2013-03-12 03:12:00,
2013-03-11 20:22:00,47.0,26.0,-100.00,SW,229,1.0,15.0,44,0.00,,,0.00,152.000000,,2013-03-12 03:22:00,
2013-03-11 20:52:00,45.0,32.0,-100.00,West,266,5.0,14.0,60,0.00,,,0.00,6.000000,,2013-03-12 03:52:00,
2013-03-11 21:52:00,36.0,26.0,-100.00,SE,139,1.0,7.0,66,0.00,,,0.00,0.000000,,2013-03-12 04:52:00,
2013-03-11 22:02:00,36.0,26.0,-100.00,SE,139,1.0,7.0,66,0.00,,,0.00,0.000000,,2013-03-12 05:02:00,
2013-03-11 22:12:00,36.0,26.0,-100.00,SE,139,1.0,7.0,66,0.00,,,0.00,0.000000,,2013-03-12 05:12:00,
2013-03-11 22:21:00,36.0,26.0,-100.00,SE,139,1.0,7.0,66,0.00,,,0.00,0.000000,,2013-03-12 05:21:00,
2013-03-11 22:52:00,34.0,29.0,-100.00,South,190,4.0,7.0,82,0.00,,,0.00,0.000000,,2013-03-12 05:52:00,
2013-03-11 23:02:00,34.0,29.0,-100.00,South,190,4.0,7.0,82,0.00,,,0.00,0.000000,,2013-03-12 06:02:00,
2013-03-11 23:11:00,34.0,29.0,-100.00,South,190,4.0,7.0,82,0.00,,,0.00,0.000000,,2013-03-12 06:11:00,
2013-03-11 23:22:00,34.0,29.0,-100.00,South,190,4.0,7.0,82,0.00,,,0.00,0.000000,,2013-03-12 06:22:00,
2013-03-11 23:52:00,30.0,25.0,-100.00,South,181,6.0,6.0,82,0.00,,,0.00,0.000000,,2013-03-12 06:52:00,